createdAt,value
2017-10-01T00:00:31.533Z,98.9
2017-10-01T00:01:31.021Z,98.99
2017-10-01T00:02:31.425Z,98.71
2017-10-01T00:03:31.007Z,98.8
2017-10-01T00:04:31.006Z,98.9
2017-10-01T00:05:30.999Z,98.61
2017-10-01T00:06:31.308Z,98.9
2017-10-01T00:07:30.991Z,98.9
2017-10-01T00:08:31.295Z,98.8
2017-10-01T00:09:30.980Z,98.8
2017-10-01T00:10:30.976Z,98.71
2017-10-01T00:11:31.281Z,98.71
2017-10-01T00:12:31.069Z,98.8
2017-10-01T00:13:30.963Z,98.61
2017-10-01T00:14:31.058Z,98.42
2017-10-01T00:15:31.264Z,98.71
2017-10-01T00:16:31.266Z,98.99
2017-10-01T00:17:31.253Z,99.28
2017-10-01T00:18:31.351Z,99.28
2017-10-01T00:19:30.933Z,98.99
2017-10-01T00:20:30.927Z,98.13
2017-10-01T00:21:30.922Z,98.9
2017-10-01T00:22:31.229Z,99.48
2017-10-01T00:23:31.230Z,99.09
2017-10-01T00:24:30.907Z,98.8
2017-10-01T00:25:31.211Z,98.99
2017-10-01T00:26:31.240Z,99.09
2017-10-01T00:27:31.206Z,99.48
2017-10-01T00:28:30.887Z,98.9
2017-10-01T00:29:30.883Z,99.09
2017-10-01T00:30:31.336Z,99.28
2017-10-01T00:31:31.182Z,99.09
2017-10-01T00:32:30.867Z,99.19
2017-10-01T00:33:30.862Z,98.99
2017-10-01T00:34:31.272Z,99.09
2017-10-01T00:35:31.161Z,99.19
2017-10-01T00:36:30.846Z,98.8
2017-10-01T00:37:31.157Z,99.09
2017-10-01T00:38:30.863Z,98.8
2017-10-01T00:39:31.032Z,99.57
2017-10-01T00:40:30.827Z,99.19
2017-10-01T00:41:30.824Z,99.48
2017-10-01T00:42:30.818Z,98.61
2017-10-01T00:43:31.126Z,98.9
2017-10-01T00:44:30.907Z,98.9
2017-10-01T00:45:30.802Z,98.71
2017-10-01T00:46:31.111Z,98.8
2017-10-01T00:47:30.897Z,99.09
2017-10-01T00:48:30.796Z,99.38
2017-10-01T00:49:31.095Z,99.09
2017-10-01T00:50:30.777Z,98.9
2017-10-01T00:51:30.775Z,98.9
2017-10-01T00:52:31.088Z,99.14
2017-10-01T00:53:31.075Z,98.99
2017-10-01T00:54:30.758Z,99.04
2017-10-01T00:55:30.755Z,99.43
2017-10-01T00:56:31.057Z,99.33
2017-10-01T00:57:30.744Z,99.52
2017-10-01T00:58:30.739Z,99.33
2017-10-01T00:59:30.736Z,99.23
2017-10-01T01:00:31.039Z,98.8
2017-10-01T01:01:30.725Z,98.94
2017-10-01T01:02:31.128Z,98.94
2017-10-01T01:03:30.813Z,99.04
2017-10-01T01:04:30.708Z,98.75
2017-10-01T01:05:31.015Z,99.28
2017-10-01T01:06:31.009Z,99.52
2017-10-01T01:07:30.795Z,98.57
2017-10-01T01:08:30.997Z,98.94
2017-10-01T01:09:30.994Z,99.23
2017-10-01T01:10:30.990Z,99.33
2017-10-01T01:11:31.087Z,98.85
2017-10-01T01:12:30.670Z,98.94
2017-10-01T01:13:30.976Z,98.94
2017-10-01T01:14:30.971Z,99.52
2017-10-01T01:15:30.962Z,99.43
2017-10-01T01:16:30.648Z,99.52
2017-10-01T01:17:30.641Z,98.85
2017-10-01T01:18:31.051Z,99.23
2017-10-01T01:19:30.943Z,98.94
2017-10-01T01:20:30.940Z,99.52
2017-10-01T01:21:30.938Z,99.23
2017-10-01T01:22:30.718Z,99.23
2017-10-01T01:23:30.924Z,99.14
2017-10-01T01:24:30.918Z,99.33
2017-10-01T01:25:30.919Z,99.52
2017-10-01T01:26:30.912Z,99.14
2017-10-01T01:27:30.593Z,99.52
2017-10-01T01:28:30.901Z,98.75
2017-10-01T01:29:30.999Z,99.04
2017-10-01T01:30:30.887Z,99.04
2017-10-01T01:31:30.574Z,99.04
2017-10-01T01:32:30.879Z,99.14
2017-10-01T01:33:30.664Z,98.66
2017-10-01T01:34:30.558Z,99.23
2017-10-01T01:35:30.552Z,98.85
2017-10-01T01:36:30.960Z,99.04
2017-10-01T01:37:30.544Z,99.23
2017-10-01T01:38:30.536Z,99.23
2017-10-01T01:39:30.632Z,99.23
2017-10-01T01:40:30.839Z,99.33
2017-10-01T01:41:30.522Z,99.33
2017-10-01T01:42:30.835Z,98.85
2017-10-01T01:43:30.825Z,98.94
2017-10-01T01:44:30.508Z,98.85
2017-10-01T01:45:30.503Z,99.19
2017-10-01T01:46:30.598Z,99.04
2017-10-01T01:47:30.494Z,98.94
2017-10-01T01:48:30.486Z,99.28
2017-10-01T01:49:30.633Z,99.43
2017-10-01T01:50:30.888Z,98.75
2017-10-01T01:51:30.788Z,98.85
2017-10-01T01:52:30.467Z,98.66
2017-10-01T01:53:30.873Z,98.66
2017-10-01T01:54:30.769Z,98.75
2017-10-01T01:55:30.452Z,98.75
2017-10-01T01:56:30.448Z,98.66
2017-10-01T01:57:30.754Z,98.75
2017-10-01T01:58:30.748Z,98.57
2017-10-01T01:59:30.742Z,98.85
2017-10-01T02:00:30.736Z,98.57
2017-10-01T02:01:30.932Z,98.57
2017-10-01T02:02:30.825Z,98.47
2017-10-01T02:03:30.410Z,97.89
2017-10-01T02:04:30.408Z,98.28
2017-10-01T02:05:30.402Z,98.94
2017-10-01T02:06:30.398Z,98.47
2017-10-01T02:07:30.493Z,98.47
2017-10-01T02:08:30.389Z,98.75
2017-10-01T02:09:30.699Z,98.37
2017-10-01T02:10:30.687Z,98.08
2017-10-01T02:11:30.369Z,98.28
2017-10-01T02:12:30.673Z,98.75
2017-10-01T02:13:30.871Z,98.37
2017-10-01T02:14:30.664Z,98.66
2017-10-01T02:15:30.350Z,98.66
2017-10-01T02:16:30.447Z,98.66
2017-10-01T02:17:30.442Z,98.57
2017-10-01T02:18:30.749Z,98.85
2017-10-01T02:19:30.331Z,98.85
2017-10-01T02:20:30.641Z,98.47
2017-10-01T02:21:30.631Z,98.57
2017-10-01T02:22:30.416Z,98.57
2017-10-01T02:23:30.412Z,98.18
2017-10-01T02:24:30.305Z,99.43
2017-10-01T02:25:30.301Z,99.33
2017-10-01T02:26:30.608Z,99.04
2017-10-01T02:27:30.291Z,99.04
2017-10-01T02:28:30.285Z,99.43
2017-10-01T02:29:30.588Z,98.94
2017-10-01T02:30:30.278Z,98.94
2017-10-01T02:31:30.372Z,99.23
2017-10-01T02:32:30.574Z,99.04
2017-10-01T02:33:30.410Z,98.94
2017-10-01T02:34:30.255Z,98.94
2017-10-01T02:35:30.567Z,98.75
2017-10-01T02:36:30.244Z,98.94
2017-10-01T02:37:30.550Z,99.23
2017-10-01T02:38:30.335Z,98.75
2017-10-01T02:39:30.227Z,99.14
2017-10-01T02:40:30.635Z,99.43
2017-10-01T02:41:30.529Z,99.43
2017-10-01T02:42:30.525Z,99.14
2017-10-01T02:43:30.207Z,99.04
2017-10-01T02:44:30.517Z,99.23
2017-10-01T02:45:30.199Z,99.04
2017-10-01T02:46:30.504Z,99.04
2017-10-01T02:47:30.187Z,99.33
2017-10-01T02:48:30.283Z,99.23
2017-10-01T02:49:30.600Z,99.23
2017-10-01T02:50:30.173Z,99.99
2017-10-01T02:51:30.167Z,99.62
2017-10-01T02:52:30.476Z,99.71
2017-10-01T02:53:30.467Z,99.14
2017-10-01T02:54:30.460Z,99.43
2017-10-01T02:55:30.458Z,98.94
2017-10-01T02:56:30.143Z,99.9
2017-10-01T02:57:30.449Z,99.9
2017-10-01T02:58:30.132Z,99.9
2017-10-01T02:59:30.127Z,99.99
2017-10-01T03:00:30.433Z,99.62
2017-10-01T03:01:30.429Z,99.99
2017-10-01T03:02:30.419Z,99.9
2017-10-01T03:03:30.207Z,99.99
2017-10-01T03:04:30.420Z,99.99
2017-10-01T03:05:30.404Z,99.52
2017-10-01T03:06:30.092Z,99.9
2017-10-01T03:07:30.088Z,99.71
2017-10-01T03:08:30.390Z,99.99
2017-10-01T03:09:30.074Z,99.99
2017-10-01T03:10:30.381Z,99.62
2017-10-01T03:11:30.065Z,99.9
2017-10-01T03:12:30.369Z,99.99
2017-10-01T03:13:30.566Z,99.9
2017-10-01T03:14:30.050Z,99.9
2017-10-01T03:15:30.047Z,99.9
2017-10-01T03:16:30.038Z,99.99
2017-10-01T03:17:30.345Z,99.99
2017-10-01T03:18:30.440Z,99.99
2017-10-01T03:19:30.024Z,99.99
2017-10-01T03:20:30.329Z,99.71
2017-10-01T03:21:30.321Z,99.99
2017-10-01T03:22:30.009Z,99.99
2017-10-01T03:23:30.004Z,99.99
2017-10-01T03:24:30.309Z,99.99
2017-10-01T03:25:30.302Z,99.99
2017-10-01T03:26:30.400Z,99.99
2017-10-01T03:27:29.981Z,99.99
2017-10-01T03:28:30.389Z,99.99
2017-10-01T03:29:29.972Z,99.99
2017-10-01T03:30:30.283Z,99.23
2017-10-01T03:31:30.271Z,99.43
2017-10-01T03:32:30.267Z,99.33
2017-10-01T03:33:29.951Z,99.99
2017-10-01T03:34:30.254Z,99.99
2017-10-01T03:35:30.254Z,99.9
2017-10-01T03:36:30.245Z,99.99
2017-10-01T03:37:30.031Z,99.9
2017-10-01T03:38:29.927Z,99.99
2017-10-01T03:39:30.231Z,99.99
2017-10-01T03:40:30.016Z,99.99
2017-10-01T03:41:30.013Z,99.99
2017-10-01T03:42:29.905Z,99.43
2017-10-01T03:43:29.900Z,99.33
2017-10-01T03:44:30.207Z,99.23
2017-10-01T03:45:30.300Z,99.62
2017-10-01T03:46:29.882Z,99.33
2017-10-01T03:47:29.879Z,98.75
2017-10-01T03:48:30.186Z,98.94
2017-10-01T03:49:29.969Z,98.85
2017-10-01T03:50:30.175Z,99.14
2017-10-01T03:51:30.170Z,99.52
2017-10-01T03:52:29.954Z,99.52
2017-10-01T03:53:29.868Z,99.14
2017-10-01T03:54:30.253Z,99.14
2017-10-01T03:55:30.147Z,99.23
2017-10-01T03:56:29.935Z,99.23
2017-10-01T03:57:29.929Z,99.33
2017-10-01T03:58:30.237Z,99.33
2017-10-01T03:59:30.129Z,99.52
2017-10-01T04:00:29.816Z,99.33
2017-10-01T04:01:29.905Z,99.14
2017-10-01T04:02:30.114Z,98.94
2017-10-01T04:03:29.798Z,98.94
2017-10-01T04:04:29.791Z,98.94
2017-10-01T04:05:29.788Z,98.94
2017-10-01T04:06:29.783Z,98.85
2017-10-01T04:07:30.089Z,98.85
2017-10-01T04:08:30.081Z,98.75
2017-10-01T04:09:30.174Z,98.57
2017-10-01T04:10:30.080Z,98.57
2017-10-01T04:11:30.067Z,98.75
2017-10-01T04:12:29.850Z,99.23
2017-10-01T04:13:30.068Z,99.14
2017-10-01T04:14:29.890Z,99.23
2017-10-01T04:15:30.045Z,98.85
2017-10-01T04:16:30.142Z,98.85
2017-10-01T04:17:29.724Z,99.23
2017-10-01T04:18:29.720Z,99.33
2017-10-01T04:19:29.712Z,98.94
2017-10-01T04:20:29.707Z,98.75
2017-10-01T04:21:30.020Z,98.85
2017-10-01T04:22:29.697Z,98.47
2017-10-01T04:23:29.694Z,98.47
2017-10-01T04:24:29.688Z,98.57
2017-10-01T04:25:30.096Z,98.66
2017-10-01T04:26:29.679Z,99.43
2017-10-01T04:27:29.983Z,99.33
2017-10-01T04:28:29.767Z,99.14
2017-10-01T04:29:29.660Z,99.23
2017-10-01T04:30:29.657Z,99.43
2017-10-01T04:31:29.653Z,99.14
2017-10-01T04:32:29.647Z,98.94
2017-10-01T04:33:29.641Z,99.23
2017-10-01T04:34:29.948Z,98.57
2017-10-01T04:35:29.941Z,98.57
2017-10-01T04:36:29.625Z,98.66
2017-10-01T04:37:29.929Z,98.66
2017-10-01T04:38:30.029Z,99.23
2017-10-01T04:39:29.608Z,99.52
2017-10-01T04:40:29.922Z,98.94
2017-10-01T04:41:29.915Z,98.94
2017-10-01T04:42:29.597Z,98.75
2017-10-01T04:43:29.590Z,99.23
2017-10-01T04:44:29.997Z,99.04
2017-10-01T04:45:29.888Z,99.52
2017-10-01T04:46:29.891Z,99.04
2017-10-01T04:47:29.879Z,99.52
2017-10-01T04:48:29.564Z,99.33
2017-10-01T04:49:29.559Z,99.33
2017-10-01T04:50:29.553Z,99.28
2017-10-01T04:51:29.856Z,99.37
2017-10-01T04:52:29.544Z,98.85
2017-10-01T04:53:29.537Z,98.9
2017-10-01T04:54:29.532Z,99.57
2017-10-01T04:55:29.525Z,99.57
2017-10-01T04:56:29.523Z,99.18
2017-10-01T04:57:29.518Z,99.95
2017-10-01T04:58:29.822Z,99.99
2017-10-01T04:59:29.506Z,99.52
2017-10-01T05:00:29.603Z,99.18
2017-10-01T05:01:29.698Z,99.9
2017-10-01T05:02:29.802Z,99.9
2017-10-01T05:03:29.797Z,99.99
2017-10-01T05:04:29.793Z,99.99
2017-10-01T05:05:29.477Z,99.99
2017-10-01T05:06:29.669Z,99.9
2017-10-01T05:07:29.465Z,99.95
2017-10-01T05:08:29.774Z,99.99
2017-10-01T05:09:29.453Z,99.99
2017-10-01T05:10:29.449Z,99.99
2017-10-01T05:11:29.443Z,99.9
2017-10-01T05:12:29.439Z,99.9
2017-10-01T05:13:29.746Z,99.99
2017-10-01T05:14:29.741Z,99.43
2017-10-01T05:15:29.736Z,99.33
2017-10-01T05:16:29.726Z,99.99
2017-10-01T05:17:29.828Z,99.9
2017-10-01T05:18:29.410Z,99.99
2017-10-01T05:19:29.713Z,99.9
2017-10-01T05:20:29.710Z,99.62
2017-10-01T05:21:29.492Z,99.99
2017-10-01T05:22:29.389Z,99.99
2017-10-01T05:23:29.691Z,99.99
2017-10-01T05:24:29.376Z,99.9
2017-10-01T05:25:29.471Z,99.9
2017-10-01T05:26:29.674Z,99.9
2017-10-01T05:27:29.361Z,99.71
2017-10-01T05:28:29.355Z,99.9
2017-10-01T05:29:29.665Z,99.71
2017-10-01T05:30:29.657Z,99.99
2017-10-01T05:31:29.749Z,99.99
2017-10-01T05:32:29.336Z,99.99
2017-10-01T05:33:29.331Z,99.99
2017-10-01T05:34:29.326Z,99.99
2017-10-01T05:35:29.320Z,99.99
2017-10-01T05:36:29.626Z,99.99
2017-10-01T05:37:29.410Z,99.99
2017-10-01T05:38:29.303Z,99.23
2017-10-01T05:39:29.399Z,99.62
2017-10-01T05:40:29.612Z,99.23
2017-10-01T05:41:29.605Z,99.52
2017-10-01T05:42:29.283Z,99.9
2017-10-01T05:43:29.688Z,99.99
2017-10-01T05:44:29.273Z,99.9
2017-10-01T05:45:29.267Z,99.99
2017-10-01T05:46:29.574Z,99.9
2017-10-01T05:47:29.256Z,99.9
2017-10-01T05:48:29.663Z,99.99
2017-10-01T05:49:29.245Z,99.9
2017-10-01T05:50:29.240Z,99.71
2017-10-01T05:51:29.545Z,99.9
2017-10-01T05:52:29.230Z,99.99
2017-10-01T05:53:29.537Z,99.99
2017-10-01T05:54:29.219Z,99.99
2017-10-01T05:55:29.524Z,99.99
2017-10-01T05:56:29.619Z,99.99
2017-10-01T05:57:29.205Z,99.99
2017-10-01T05:58:29.198Z,99.99
2017-10-01T05:59:29.294Z,99.99
2017-10-01T06:00:29.182Z,99.99
2017-10-01T06:01:29.490Z,99.99
2017-10-01T06:02:29.275Z,99.99
2017-10-01T06:03:29.171Z,99.99
2017-10-01T06:04:29.267Z,99.99
2017-10-01T06:05:29.158Z,99.99
2017-10-01T06:06:29.153Z,99.99
2017-10-01T06:07:29.150Z,99.99
2017-10-01T06:08:29.455Z,99.99
2017-10-01T06:09:29.599Z,99.99
2017-10-01T06:10:29.133Z,99.71
2017-10-01T06:11:29.128Z,99.99
2017-10-01T06:12:29.132Z,99.9
2017-10-01T06:13:29.117Z,99.95
2017-10-01T06:14:29.113Z,99.95
2017-10-01T06:15:29.416Z,99.99
2017-10-01T06:16:29.510Z,99.99
2017-10-01T06:17:29.095Z,99.99
2017-10-01T06:18:29.402Z,99.99
2017-10-01T06:19:29.397Z,99.99
2017-10-01T06:20:29.080Z,99.99
2017-10-01T06:21:29.077Z,99.99
2017-10-01T06:22:29.068Z,99.99
2017-10-01T06:23:29.398Z,99.95
2017-10-01T06:24:29.061Z,99.99
2017-10-01T06:25:29.365Z,99.99
2017-10-01T06:26:29.460Z,99.99
2017-10-01T06:27:29.044Z,99.99
2017-10-01T06:28:29.350Z,99.99
2017-10-01T06:29:29.133Z,99.99
2017-10-01T06:30:29.338Z,99.99
2017-10-01T06:31:29.433Z,99.99
2017-10-01T06:32:29.428Z,99.99
2017-10-01T06:33:29.319Z,99.99
2017-10-01T06:34:29.326Z,99.99
2017-10-01T06:35:29.003Z,99.99
2017-10-01T06:36:29.407Z,99.95
2017-10-01T06:37:28.992Z,99.99
2017-10-01T06:38:29.293Z,99.99
2017-10-01T06:39:28.982Z,99.99
2017-10-01T06:40:28.975Z,99.95
2017-10-01T06:41:28.970Z,99.76
2017-10-01T06:42:28.967Z,99.66
2017-10-01T06:43:29.371Z,99.95
2017-10-01T06:44:28.956Z,99.95
2017-10-01T06:45:28.949Z,99.99
2017-10-01T06:46:29.254Z,99.76
2017-10-01T06:47:28.941Z,99.99
2017-10-01T06:48:29.032Z,99.99
2017-10-01T06:49:29.242Z,99.95
2017-10-01T06:50:29.334Z,99.99
2017-10-01T06:51:29.023Z,99.76
2017-10-01T06:52:29.228Z,99.99
2017-10-01T06:53:29.216Z,99.99
2017-10-01T06:54:28.905Z,99.99
2017-10-01T06:55:28.996Z,99.99
2017-10-01T06:56:29.301Z,99.99
2017-10-01T06:57:28.889Z,99.99
2017-10-01T06:58:29.293Z,99.99
2017-10-01T06:59:29.210Z,99.95
2017-10-01T07:00:28.871Z,99.95
2017-10-01T07:01:28.868Z,99.95
2017-10-01T07:02:28.861Z,99.99
2017-10-01T07:03:29.264Z,99.99
2017-10-01T07:04:28.853Z,99.99
2017-10-01T07:05:28.845Z,99.99
2017-10-01T07:06:28.838Z,99.76
2017-10-01T07:07:28.936Z,99.76
2017-10-01T07:08:28.834Z,99.99
2017-10-01T07:09:28.826Z,99.66
2017-10-01T07:10:29.133Z,99.19
2017-10-01T07:11:28.916Z,99.28
2017-10-01T07:12:29.120Z,99.38
2017-10-01T07:13:29.115Z,99.28
2017-10-01T07:14:28.799Z,99.43
2017-10-01T07:15:29.107Z,98.9
2017-10-01T07:16:28.788Z,99.43
2017-10-01T07:17:29.092Z,99.38
2017-10-01T07:18:29.294Z,99.43
2017-10-01T07:19:29.089Z,99.14
2017-10-01T07:20:29.078Z,99.43
2017-10-01T07:21:29.174Z,98.85
2017-10-01T07:22:29.166Z,99.14
2017-10-01T07:23:28.854Z,99.33
2017-10-01T07:24:28.748Z,99.52
2017-10-01T07:25:28.743Z,99.43
2017-10-01T07:26:29.048Z,98.95
2017-10-01T07:27:29.042Z,98.85
2017-10-01T07:28:28.826Z,98.66
2017-10-01T07:29:29.132Z,98.75
2017-10-01T07:30:28.719Z,98.85
2017-10-01T07:31:29.022Z,98.8
2017-10-01T07:32:28.707Z,98.66
2017-10-01T07:33:29.009Z,98.85
2017-10-01T07:34:28.795Z,98.75
2017-10-01T07:35:28.690Z,98.95
2017-10-01T07:36:28.993Z,98.57
2017-10-01T07:37:28.779Z,98.95
2017-10-01T07:38:28.987Z,98.18
2017-10-01T07:39:28.669Z,98.66
2017-10-01T07:40:28.976Z,97.8
2017-10-01T07:41:28.973Z,98.38
2017-10-01T07:42:28.656Z,98.28
2017-10-01T07:43:28.649Z,98.47
2017-10-01T07:44:29.106Z,98.57
2017-10-01T07:45:28.640Z,98.57
2017-10-01T07:46:28.632Z,98.38
2017-10-01T07:47:28.938Z,97.42
2017-10-01T07:48:28.938Z,97.71
2017-10-01T07:49:28.929Z,97.99
2017-10-01T07:50:29.072Z,97.13
2017-10-01T07:51:28.926Z,97.23
2017-10-01T07:52:28.703Z,97.8
2017-10-01T07:53:28.598Z,97.61
2017-10-01T07:54:28.592Z,97.23
2017-10-01T07:55:28.738Z,96.94
2017-10-01T07:56:28.894Z,97.42
2017-10-01T07:57:28.886Z,96.94
2017-10-01T07:58:28.772Z,96.94
2017-10-01T07:59:28.567Z,96.94
2017-10-01T08:00:28.565Z,96.94
2017-10-01T08:01:28.557Z,97.13
2017-10-01T08:02:28.553Z,96.75
2017-10-01T08:03:28.855Z,96.66
2017-10-01T08:04:28.954Z,96.94
2017-10-01T08:05:28.858Z,96.47
2017-10-01T08:06:28.532Z,96.56
2017-10-01T08:07:28.934Z,96.47
2017-10-01T08:08:28.831Z,96.56
2017-10-01T08:09:28.516Z,97.23
2017-10-01T08:10:28.513Z,96.47
2017-10-01T08:11:28.507Z,96.75
2017-10-01T08:12:28.813Z,96.56
2017-10-01T08:13:28.810Z,96.47
2017-10-01T08:14:28.800Z,96.47
2017-10-01T08:15:28.488Z,96.37
2017-10-01T08:16:28.480Z,95.89
2017-10-01T08:17:28.475Z,95.56
2017-10-01T08:18:28.477Z,95.75
2017-10-01T08:19:28.873Z,95.94
2017-10-01T08:20:28.459Z,95.94
2017-10-01T08:21:28.966Z,95.17
2017-10-01T08:22:28.450Z,95.56
2017-10-01T08:23:28.447Z,95.56
2017-10-01T08:24:28.441Z,94.7
2017-10-01T08:25:28.433Z,94.79
2017-10-01T08:26:28.429Z,94.6
2017-10-01T08:27:28.736Z,94.7
2017-10-01T08:28:28.728Z,95.07
2017-10-01T08:29:28.413Z,94.79
2017-10-01T08:30:28.411Z,94.7
2017-10-01T08:31:28.405Z,94.98
2017-10-01T08:32:28.398Z,94.6
2017-10-01T08:33:28.704Z,94.5
2017-10-01T08:34:28.701Z,94.6
2017-10-01T08:35:28.385Z,94.74
2017-10-01T08:36:28.694Z,94.7
2017-10-01T08:37:28.684Z,93.93
2017-10-01T08:38:28.781Z,93.74
2017-10-01T08:39:28.675Z,93.26
2017-10-01T08:40:28.693Z,93.26
2017-10-01T08:41:28.667Z,93.93
2017-10-01T08:42:28.348Z,93.16
2017-10-01T08:43:28.654Z,93.07
2017-10-01T08:44:28.752Z,93.07
2017-10-01T08:45:28.335Z,93.64
2017-10-01T08:46:28.328Z,93.45
2017-10-01T08:47:28.325Z,92.97
2017-10-01T08:48:28.322Z,92.3
2017-10-01T08:49:28.622Z,92.59
2017-10-01T08:50:28.621Z,92.4
2017-10-01T08:51:28.306Z,91.73
2017-10-01T08:52:28.709Z,91.53
2017-10-01T08:53:28.445Z,91.53
2017-10-01T08:54:28.288Z,91.63
2017-10-01T08:55:28.593Z,91.63
2017-10-01T08:56:28.588Z,91.49
2017-10-01T08:57:28.685Z,91.87
2017-10-01T08:58:28.270Z,91.77
2017-10-01T08:59:28.263Z,91.58
2017-10-01T09:00:28.259Z,91.68
2017-10-01T09:01:28.456Z,91.97
2017-10-01T09:02:28.250Z,91.3
2017-10-01T09:03:28.248Z,91.68
2017-10-01T09:04:28.238Z,91.58
2017-10-01T09:05:28.234Z,91.77
2017-10-01T09:06:28.430Z,91.68
2017-10-01T09:07:28.225Z,91.49
2017-10-01T09:08:28.221Z,91.11
2017-10-01T09:09:28.523Z,91.01
2017-10-01T09:10:28.208Z,90.91
2017-10-01T09:11:28.304Z,91.3
2017-10-01T09:12:28.509Z,90.72
2017-10-01T09:13:28.607Z,90.44
2017-10-01T09:14:28.192Z,90.44
2017-10-01T09:15:28.185Z,90.82
2017-10-01T09:16:28.491Z,90.53
2017-10-01T09:17:28.486Z,90.15
2017-10-01T09:18:28.169Z,90.63
2017-10-01T09:19:28.167Z,90.05
2017-10-01T09:20:28.162Z,90.15
2017-10-01T09:21:28.462Z,90.05
2017-10-01T09:22:28.150Z,89.29
2017-10-01T09:23:28.453Z,90.24
2017-10-01T09:24:28.139Z,89.76
2017-10-01T09:25:28.137Z,89.48
2017-10-01T09:26:28.541Z,89.48
2017-10-01T09:27:28.435Z,89.9
2017-10-01T09:28:28.122Z,89.38
2017-10-01T09:29:28.115Z,89.86
2017-10-01T09:30:28.219Z,89.38
2017-10-01T09:31:28.107Z,89.29
2017-10-01T09:32:28.408Z,88.71
2017-10-01T09:33:28.124Z,89
2017-10-01T09:34:28.093Z,89.38
2017-10-01T09:35:28.394Z,89.76
2017-10-01T09:36:28.081Z,89.76
2017-10-01T09:37:28.078Z,89.48
2017-10-01T09:38:28.073Z,89
2017-10-01T09:39:28.068Z,89.38
2017-10-01T09:40:28.061Z,89.29
2017-10-01T09:41:28.370Z,89.67
2017-10-01T09:42:28.060Z,89.95
2017-10-01T09:43:28.047Z,89.95
2017-10-01T09:44:28.042Z,89.76
2017-10-01T09:45:28.036Z,89.19
2017-10-01T09:46:28.032Z,89.09
2017-10-01T09:47:28.025Z,89.38
2017-10-01T09:48:28.022Z,89.29
2017-10-01T09:49:28.166Z,89.58
2017-10-01T09:50:28.013Z,89.29
2017-10-01T09:51:28.008Z,89.19
2017-10-01T09:52:28.001Z,89.67
2017-10-01T09:53:27.998Z,89.58
2017-10-01T09:54:27.990Z,89.76
2017-10-01T09:55:28.295Z,90.24
2017-10-01T09:56:27.981Z,89.76
2017-10-01T09:57:27.978Z,89.76
2017-10-01T09:58:27.973Z,89.48
2017-10-01T09:59:28.068Z,89.95
2017-10-01T10:00:28.271Z,89.76
2017-10-01T10:01:27.958Z,89.86
2017-10-01T10:02:28.263Z,88.81
2017-10-01T10:03:28.257Z,89.19
2017-10-01T10:04:27.944Z,88.71
2017-10-01T10:05:28.346Z,89.19
2017-10-01T10:06:28.030Z,88.9
2017-10-01T10:07:28.234Z,88.04
2017-10-01T10:08:28.230Z,86.99
2017-10-01T10:09:27.917Z,86.36
2017-10-01T10:10:27.914Z,85.69
2017-10-01T10:11:27.908Z,85.5
2017-10-01T10:12:28.212Z,85.12
2017-10-01T10:13:27.899Z,84.45
2017-10-01T10:14:27.894Z,84.83
2017-10-01T10:15:27.890Z,84.35
2017-10-01T10:16:27.884Z,84.45
2017-10-01T10:17:27.978Z,83.97
2017-10-01T10:18:27.875Z,83.59
2017-10-01T10:19:27.867Z,82.92
2017-10-01T10:20:27.866Z,82.06
2017-10-01T10:21:27.859Z,81.77
2017-10-01T10:22:28.265Z,82.06
2017-10-01T10:23:28.161Z,82.92
2017-10-01T10:24:27.846Z,82.73
2017-10-01T10:25:28.256Z,83.25
2017-10-01T10:26:28.147Z,83.15
2017-10-01T10:27:27.831Z,82.29
2017-10-01T10:28:27.926Z,82.57
2017-10-01T10:29:27.920Z,82.29
2017-10-01T10:30:28.124Z,82.09
2017-10-01T10:31:27.811Z,81.9
2017-10-01T10:32:28.115Z,82.29
2017-10-01T10:33:28.112Z,82
2017-10-01T10:34:28.103Z,82.38
2017-10-01T10:35:27.815Z,81.62
2017-10-01T10:36:28.195Z,81.71
2017-10-01T10:37:27.782Z,81.56
2017-10-01T10:38:27.777Z,81.27
2017-10-01T10:39:28.081Z,81.27
2017-10-01T10:40:27.768Z,81.75
2017-10-01T10:41:27.762Z,81.46
2017-10-01T10:42:28.066Z,81.37
2017-10-01T10:43:27.751Z,80.89
2017-10-01T10:44:27.847Z,80.79
2017-10-01T10:45:28.052Z,80.22
2017-10-01T10:46:28.045Z,80.51
2017-10-01T10:47:27.735Z,79.64
2017-10-01T10:48:27.728Z,79.55
2017-10-01T10:49:28.032Z,80.22
2017-10-01T10:50:28.040Z,79.55
2017-10-01T10:51:28.027Z,79.36
2017-10-01T10:52:27.712Z,79.26
2017-10-01T10:53:28.018Z,78.97
2017-10-01T10:54:27.701Z,79.16
2017-10-01T10:55:27.696Z,79.3
2017-10-01T10:56:27.690Z,79.11
2017-10-01T10:57:27.998Z,79.26
2017-10-01T10:58:28.089Z,79.21
2017-10-01T10:59:27.989Z,79.21
2017-10-01T11:00:27.671Z,78.63
2017-10-01T11:01:27.665Z,78.25
2017-10-01T11:02:27.664Z,77.95
2017-10-01T11:03:27.968Z,78.44
2017-10-01T11:04:27.654Z,78.53
2017-10-01T11:05:27.963Z,78.44
2017-10-01T11:06:27.643Z,78.25
2017-10-01T11:07:27.639Z,78.44
2017-10-01T11:08:27.944Z,78.15
2017-10-01T11:09:28.043Z,78.25
2017-10-01T11:10:27.934Z,77.95
2017-10-01T11:11:27.931Z,77.38
2017-10-01T11:12:27.617Z,77.51
2017-10-01T11:13:28.019Z,77.33
2017-10-01T11:14:27.607Z,76.94
2017-10-01T11:15:27.602Z,76.65
2017-10-01T11:16:27.907Z,76.46
2017-10-01T11:17:27.593Z,75.21
2017-10-01T11:18:27.897Z,74.44
2017-10-01T11:19:27.584Z,74.06
2017-10-01T11:20:27.580Z,73.68
2017-10-01T11:21:27.984Z,73.39
2017-10-01T11:22:27.879Z,74.06
2017-10-01T11:23:27.872Z,74.44
2017-10-01T11:24:27.866Z,74.44
2017-10-01T11:25:27.865Z,74.35
2017-10-01T11:26:27.651Z,73.97
2017-10-01T11:27:27.545Z,73.77
2017-10-01T11:28:27.544Z,73.87
2017-10-01T11:29:27.535Z,74.44
2017-10-01T11:30:27.531Z,74.16
2017-10-01T11:31:27.529Z,74.64
2017-10-01T11:32:27.840Z,74.44
2017-10-01T11:33:27.828Z,75.31
2017-10-01T11:34:27.612Z,75.02
2017-10-01T11:35:27.510Z,74.83
2017-10-01T11:36:27.506Z,75.02
2017-10-01T11:37:27.499Z,74.93
2017-10-01T11:38:27.803Z,74.83
2017-10-01T11:39:27.491Z,74.73
2017-10-01T11:40:27.823Z,75.4
2017-10-01T11:41:27.483Z,74.26
2017-10-01T11:42:27.807Z,73.97
2017-10-01T11:43:27.470Z,74.26
2017-10-01T11:44:27.468Z,73.68
2017-10-01T11:45:27.463Z,73.3
2017-10-01T11:46:27.770Z,72.53
2017-10-01T11:47:27.553Z,72.14
2017-10-01T11:48:27.450Z,71.76
2017-10-01T11:49:27.447Z,71.28
2017-10-01T11:50:27.441Z,71.19
2017-10-01T11:51:27.848Z,70.93
2017-10-01T11:52:27.867Z,71.31
2017-10-01T11:53:27.737Z,71.51
2017-10-01T11:54:27.423Z,71.51
2017-10-01T11:55:27.727Z,71.61
2017-10-01T11:56:27.820Z,71.41
2017-10-01T11:57:27.716Z,71.89
2017-10-01T11:58:27.709Z,71.31
2017-10-01T11:59:27.398Z,70.74
2017-10-01T12:00:27.394Z,70.55
2017-10-01T12:01:27.800Z,69.3
2017-10-01T12:02:27.696Z,68.63
2017-10-01T12:03:27.690Z,69.49
2017-10-01T12:04:27.885Z,69.87
2017-10-01T12:05:27.370Z,70.64
2017-10-01T12:06:27.673Z,70.93
2017-10-01T12:07:27.674Z,71.41
2017-10-01T12:08:27.771Z,70.36
2017-10-01T12:09:27.662Z,70.26
2017-10-01T12:10:27.348Z,69.97
2017-10-01T12:11:27.652Z,69.68
2017-10-01T12:12:27.440Z,70.17
2017-10-01T12:13:27.335Z,69.72
2017-10-01T12:14:27.330Z,69.72
2017-10-01T12:15:27.635Z,69.81
2017-10-01T12:16:27.630Z,68.85
2017-10-01T12:17:27.316Z,68.85
2017-10-01T12:18:27.313Z,69.05
2017-10-01T12:19:27.309Z,68.85
2017-10-01T12:20:27.303Z,68.66
2017-10-01T12:21:27.302Z,69.05
2017-10-01T12:22:27.604Z,68.95
2017-10-01T12:23:27.702Z,68.66
2017-10-01T12:24:27.283Z,68.08
2017-10-01T12:25:27.590Z,67.8
2017-10-01T12:26:27.587Z,67.41
2017-10-01T12:27:27.273Z,67.51
2017-10-01T12:28:27.577Z,68.08
2017-10-01T12:29:27.264Z,67.9
2017-10-01T12:30:27.259Z,67.41
2017-10-01T12:31:27.252Z,66.93
2017-10-01T12:32:27.560Z,67.32
2017-10-01T12:33:27.552Z,67.22
2017-10-01T12:34:27.550Z,66.93
2017-10-01T12:35:27.544Z,67.22
2017-10-01T12:36:27.538Z,66.36
2017-10-01T12:37:27.225Z,65.59
2017-10-01T12:38:27.530Z,65.27
2017-10-01T12:39:27.316Z,65.56
2017-10-01T12:40:27.312Z,66.33
2017-10-01T12:41:27.518Z,66.52
2017-10-01T12:42:27.512Z,66.9
2017-10-01T12:43:27.200Z,67.67
2017-10-01T12:44:27.506Z,67.47
2017-10-01T12:45:27.190Z,67.09
2017-10-01T12:46:27.499Z,67.29
2017-10-01T12:47:27.187Z,67.47
2017-10-01T12:48:27.487Z,67.57
2017-10-01T12:49:27.489Z,67.83
2017-10-01T12:50:27.167Z,67.47
2017-10-01T12:51:27.162Z,66.9
2017-10-01T12:52:27.574Z,66.39
2017-10-01T12:53:27.154Z,65.56
2017-10-01T12:54:27.560Z,65.46
2017-10-01T12:55:27.147Z,64.28